sensor_id;sensor_type;location;lat;lon;timestamp;temperature;humidity
32612;DHT22;19030;49.478;8.986;2023-04-29T00:00:07;13.10;99.90
32612;DHT22;19030;49.478;8.986;2023-04-29T00:02:14;13.10;99.90
32612;DHT22;19030;49.478;8.986;2023-04-29T00:04:14;13.10;99.90
32612;DHT22;19030;49.478;8.986;2023-04-29T00:06:15;13.10;99.90
32612;DHT22;19030;49.478;8.986;2023-04-29T00:08:16;13.10;99.90
32612;DHT22;19030;49.478;8.986;2023-04-29T00:10:16;13.10;99.90
32612;DHT22;19030;49.478;8.986;2023-04-29T00:12:17;13.10;99.90
32612;DHT22;19030;49.478;8.986;2023-04-29T00:14:17;13.10;99.90
32612;DHT22;19030;49.478;8.986;2023-04-29T00:16:18;13.00;99.90
32612;DHT22;19030;49.478;8.986;2023-04-29T00:18:19;13.00;99.90
32612;DHT22;19030;49.478;8.986;2023-04-29T00:20:19;13.00;99.90
32612;DHT22;19030;49.478;8.986;2023-04-29T00:22:20;13.00;99.90
32612;DHT22;19030;49.478;8.986;2023-04-29T00:24:22;12.90;99.90
32612;DHT22;19030;49.478;8.986;2023-04-29T00:26:22;12.90;99.90
32612;DHT22;19030;49.478;8.986;2023-04-29T00:28:23;12.90;99.90
32612;DHT22;19030;49.478;8.986;2023-04-29T00:30:23;12.90;99.90
32612;DHT22;19030;49.478;8.986;2023-04-29T00:32:24;12.90;99.90
32612;DHT22;19030;49.478;8.986;2023-04-29T00:34:24;12.90;99.90
32612;DHT22;19030;49.478;8.986;2023-04-29T00:36:25;12.90;99.90
32612;DHT22;19030;49.478;8.986;2023-04-29T00:38:25;12.80;99.90
32612;DHT22;19030;49.478;8.986;2023-04-29T00:40:27;12.80;99.90
32612;DHT22;19030;49.478;8.986;2023-04-29T00:42:28;12.80;99.90
32612;DHT22;19030;49.478;8.986;2023-04-29T00:44:31;12.80;99.90
32612;DHT22;19030;49.478;8.986;2023-04-29T00:46:31;12.80;99.90
32612;DHT22;19030;49.478;8.986;2023-04-29T00:48:32;12.80;99.90
32612;DHT22;19030;49.478;8.986;2023-04-29T00:50:34;12.80;99.90
32612;DHT22;19030;49.478;8.986;2023-04-29T00:52:36;12.70;99.90
32612;DHT22;19030;49.478;8.986;2023-04-29T00:54:37;12.70;99.90
32612;DHT22;19030;49.478;8.986;2023-04-29T00:56:39;12.70;99.90
32612;DHT22;19030;49.478;8.986;2023-04-29T00:58:43;12.70;99.90
32612;DHT22;19030;49.478;8.986;2023-04-29T01:00:49;12.60;99.90
32612;DHT22;19030;49.478;8.986;2023-04-29T01:02:51;12.60;99.90
32612;DHT22;19030;49.478;8.986;2023-04-29T01:04:51;12.50;99.90
32612;DHT22;19030;49.478;8.986;2023-04-29T01:07:08;12.50;99.90
32612;DHT22;19030;49.478;8.986;2023-04-29T01:09:49;12.50;99.90
32612;DHT22;19030;49.478;8.986;2023-04-29T01:14:25;12.40;99.90
32612;DHT22;19030;49.478;8.986;2023-04-29T01:16:33;12.40;99.90
32612;DHT22;19030;49.478;8.986;2023-04-29T01:18:42;12.40;99.90
32612;DHT22;19030;49.478;8.986;2023-04-29T01:20:47;12.40;99.90
32612;DHT22;19030;49.478;8.986;2023-04-29T01:22:48;12.40;99.90
32612;DHT22;19030;49.478;8.986;2023-04-29T01:24:49;12.40;99.90
32612;DHT22;19030;49.478;8.986;2023-04-29T01:26:55;12.40;99.90
32612;DHT22;19030;49.478;8.986;2023-04-29T01:29:58;12.40;99.90
32612;DHT22;19030;49.478;8.986;2023-04-29T01:32:04;12.40;99.90
32612;DHT22;19030;49.478;8.986;2023-04-29T01:34:18;12.40;99.90
32612;DHT22;19030;49.478;8.986;2023-04-29T01:37:05;12.40;99.90
32612;DHT22;19030;49.478;8.986;2023-04-29T01:39:15;12.40;99.90
32612;DHT22;19030;49.478;8.986;2023-04-29T01:41:44;12.30;99.90
32612;DHT22;19030;49.478;8.986;2023-04-29T01:43:56;12.30;99.90
32612;DHT22;19030;49.478;8.986;2023-04-29T01:45:58;12.30;99.90
32612;DHT22;19030;49.478;8.986;2023-04-29T01:48:00;12.30;99.90
32612;DHT22;19030;49.478;8.986;2023-04-29T01:50:02;12.30;99.90
32612;DHT22;19030;49.478;8.986;2023-04-29T01:52:03;12.30;99.90
32612;DHT22;19030;49.478;8.986;2023-04-29T01:54:05;12.30;99.90
32612;DHT22;19030;49.478;8.986;2023-04-29T01:56:07;12.30;99.90
32612;DHT22;19030;49.478;8.986;2023-04-29T01:58:20;12.30;99.90
32612;DHT22;19030;49.478;8.986;2023-04-29T02:00:33;12.30;99.90
32612;DHT22;19030;49.478;8.986;2023-04-29T02:02:33;12.30;99.90
32612;DHT22;19030;49.478;8.986;2023-04-29T02:04:44;12.20;99.90
32612;DHT22;19030;49.478;8.986;2023-04-29T02:06:45;12.20;99.90
32612;DHT22;19030;49.478;8.986;2023-04-29T02:08:46;12.20;99.90
32612;DHT22;19030;49.478;8.986;2023-04-29T02:10:54;12.20;99.90
32612;DHT22;19030;49.478;8.986;2023-04-29T02:13:03;12.20;99.90
32612;DHT22;19030;49.478;8.986;2023-04-29T02:15:04;12.20;99.90
32612;DHT22;19030;49.478;8.986;2023-04-29T02:17:06;12.20;99.90
32612;DHT22;19030;49.478;8.986;2023-04-29T02:19:06;12.20;99.90
32612;DHT22;19030;49.478;8.986;2023-04-29T02:21:07;12.20;99.90
32612;DHT22;19030;49.478;8.986;2023-04-29T02:23:09;12.20;99.90
32612;DHT22;19030;49.478;8.986;2023-04-29T02:25:10;12.20;99.90
32612;DHT22;19030;49.478;8.986;2023-04-29T02:27:11;12.10;99.90
32612;DHT22;19030;49.478;8.986;2023-04-29T02:29:11;12.10;99.90
32612;DHT22;19030;49.478;8.986;2023-04-29T02:31:12;12.10;99.90
32612;DHT22;19030;49.478;8.986;2023-04-29T02:33:13;12.10;99.90
32612;DHT22;19030;49.478;8.986;2023-04-29T02:35:13;12.10;99.90
32612;DHT22;19030;49.478;8.986;2023-04-29T02:37:14;12.10;99.90
32612;DHT22;19030;49.478;8.986;2023-04-29T02:39:15;12.10;99.90
32612;DHT22;19030;49.478;8.986;2023-04-29T02:41:16;12.10;99.90
32612;DHT22;19030;49.478;8.986;2023-04-29T02:43:17;12.10;99.90
32612;DHT22;19030;49.478;8.986;2023-04-29T02:45:18;12.10;99.90
32612;DHT22;19030;49.478;8.986;2023-04-29T02:47:19;12.00;99.90
32612;DHT22;19030;49.478;8.986;2023-04-29T02:49:20;12.00;99.90
32612;DHT22;19030;49.478;8.986;2023-04-29T02:51:20;12.10;99.90
32612;DHT22;19030;49.478;8.986;2023-04-29T02:53:21;12.00;99.90
32612;DHT22;19030;49.478;8.986;2023-04-29T02:55:22;12.00;99.90
32612;DHT22;19030;49.478;8.986;2023-04-29T02:57:23;12.10;99.90
32612;DHT22;19030;49.478;8.986;2023-04-29T02:59:24;12.10;99.90
32612;DHT22;19030;49.478;8.986;2023-04-29T03:01:24;12.10;99.90
32612;DHT22;19030;49.478;8.986;2023-04-29T03:03:25;12.10;99.90
32612;DHT22;19030;49.478;8.986;2023-04-29T03:05:26;12.10;99.90
32612;DHT22;19030;49.478;8.986;2023-04-29T03:07:27;12.10;99.90
32612;DHT22;19030;49.478;8.986;2023-04-29T03:09:29;12.10;99.90
32612;DHT22;19030;49.478;8.986;2023-04-29T03:11:30;12.10;99.90
32612;DHT22;19030;49.478;8.986;2023-04-29T03:13:31;12.10;99.90
32612;DHT22;19030;49.478;8.986;2023-04-29T03:15:32;12.10;99.90
32612;DHT22;19030;49.478;8.986;2023-04-29T03:17:32;12.10;99.90
32612;DHT22;19030;49.478;8.986;2023-04-29T03:19:34;12.10;99.90
32612;DHT22;19030;49.478;8.986;2023-04-29T03:21:34;12.10;99.90
32612;DHT22;19030;49.478;8.986;2023-04-29T03:23:35;12.10;99.90
32612;DHT22;19030;49.478;8.986;2023-04-29T03:25:37;12.00;99.90
32612;DHT22;19030;49.478;8.986;2023-04-29T03:27:38;12.00;99.90
32612;DHT22;19030;49.478;8.986;2023-04-29T03:29:38;12.00;99.90
32612;DHT22;19030;49.478;8.986;2023-04-29T03:31:39;12.00;99.90
32612;DHT22;19030;49.478;8.986;2023-04-29T03:33:40;12.00;99.90
32612;DHT22;19030;49.478;8.986;2023-04-29T03:35:40;12.00;99.90
32612;DHT22;19030;49.478;8.986;2023-04-29T03:37:58;12.00;99.90
32612;DHT22;19030;49.478;8.986;2023-04-29T03:40:04;11.90;99.90
32612;DHT22;19030;49.478;8.986;2023-04-29T03:42:05;11.90;99.90
32612;DHT22;19030;49.478;8.986;2023-04-29T03:44:06;11.90;99.90
32612;DHT22;19030;49.478;8.986;2023-04-29T03:46:07;11.80;99.90
32612;DHT22;19030;49.478;8.986;2023-04-29T03:48:08;11.80;99.90
32612;DHT22;19030;49.478;8.986;2023-04-29T03:50:09;11.80;99.90
32612;DHT22;19030;49.478;8.986;2023-04-29T03:52:09;11.80;99.90
32612;DHT22;19030;49.478;8.986;2023-04-29T03:54:12;11.70;99.90
32612;DHT22;19030;49.478;8.986;2023-04-29T03:56:13;11.70;99.90
32612;DHT22;19030;49.478;8.986;2023-04-29T03:58:13;11.60;99.90
32612;DHT22;19030;49.478;8.986;2023-04-29T04:00:14;11.60;99.90
32612;DHT22;19030;49.478;8.986;2023-04-29T04:02:18;11.50;99.90
32612;DHT22;19030;49.478;8.986;2023-04-29T04:04:19;11.40;99.90
32612;DHT22;19030;49.478;8.986;2023-04-29T04:06:22;11.40;99.90
32612;DHT22;19030;49.478;8.986;2023-04-29T04:08:25;11.30;99.90
32612;DHT22;19030;49.478;8.986;2023-04-29T04:10:29;11.30;99.90
32612;DHT22;19030;49.478;8.986;2023-04-29T04:12:31;11.30;99.90
32612;DHT22;19030;49.478;8.986;2023-04-29T04:14:32;11.20;99.90
32612;DHT22;19030;49.478;8.986;2023-04-29T04:16:32;11.20;99.90
32612;DHT22;19030;49.478;8.986;2023-04-29T04:18:33;11.20;99.90
32612;DHT22;19030;49.478;8.986;2023-04-29T04:20:36;11.20;99.90
32612;DHT22;19030;49.478;8.986;2023-04-29T04:22:37;11.20;99.90
32612;DHT22;19030;49.478;8.986;2023-04-29T04:24:56;11.20;99.90
32612;DHT22;19030;49.478;8.986;2023-04-29T04:26:56;11.20;99.90
32612;DHT22;19030;49.478;8.986;2023-04-29T04:29:06;11.20;99.90
32612;DHT22;19030;49.478;8.986;2023-04-29T04:31:13;11.20;99.90
32612;DHT22;19030;49.478;8.986;2023-04-29T04:33:14;11.20;99.90
32612;DHT22;19030;49.478;8.986;2023-04-29T04:35:17;11.20;99.90
32612;DHT22;19030;49.478;8.986;2023-04-29T04:37:17;11.30;99.90
32612;DHT22;19030;49.478;8.986;2023-04-29T04:39:23;11.20;99.90
32612;DHT22;19030;49.478;8.986;2023-04-29T04:41:25;11.20;99.90
32612;DHT22;19030;49.478;8.986;2023-04-29T04:43:27;11.20;99.90
32612;DHT22;19030;49.478;8.986;2023-04-29T04:45:28;11.20;99.90
32612;DHT22;19030;49.478;8.986;2023-04-29T04:47:31;11.30;99.90
32612;DHT22;19030;49.478;8.986;2023-04-29T04:49:52;11.30;99.90
32612;DHT22;19030;49.478;8.986;2023-04-29T04:51:53;11.30;99.90
32612;DHT22;19030;49.478;8.986;2023-04-29T04:53:53;11.40;99.90
32612;DHT22;19030;49.478;8.986;2023-04-29T04:56:00;11.40;99.90
32612;DHT22;19030;49.478;8.986;2023-04-29T04:58:01;11.50;99.90
32612;DHT22;19030;49.478;8.986;2023-04-29T05:00:01;11.50;99.90
32612;DHT22;19030;49.478;8.986;2023-04-29T05:02:03;11.60;99.90
32612;DHT22;19030;49.478;8.986;2023-04-29T05:04:04;11.60;99.90
32612;DHT22;19030;49.478;8.986;2023-04-29T05:06:05;11.60;99.90
32612;DHT22;19030;49.478;8.986;2023-04-29T05:08:06;11.60;99.90
32612;DHT22;19030;49.478;8.986;2023-04-29T05:10:14;11.70;99.90
32612;DHT22;19030;49.478;8.986;2023-04-29T05:12:22;11.70;99.90
32612;DHT22;19030;49.478;8.986;2023-04-29T05:14:25;11.70;99.90
32612;DHT22;19030;49.478;8.986;2023-04-29T05:16:25;11.80;99.90
32612;DHT22;19030;49.478;8.986;2023-04-29T05:18:27;11.80;99.90
32612;DHT22;19030;49.478;8.986;2023-04-29T05:20:28;11.80;99.90
32612;DHT22;19030;49.478;8.986;2023-04-29T05:22:29;11.80;99.90
32612;DHT22;19030;49.478;8.986;2023-04-29T05:24:30;11.70;99.90
32612;DHT22;19030;49.478;8.986;2023-04-29T05:26:32;11.80;99.90
32612;DHT22;19030;49.478;8.986;2023-04-29T05:28:34;11.80;99.90
32612;DHT22;19030;49.478;8.986;2023-04-29T05:30:35;11.80;99.90
32612;DHT22;19030;49.478;8.986;2023-04-29T05:32:37;11.80;99.90
32612;DHT22;19030;49.478;8.986;2023-04-29T05:34:40;11.80;99.90
32612;DHT22;19030;49.478;8.986;2023-04-29T05:36:40;11.90;99.90
32612;DHT22;19030;49.478;8.986;2023-04-29T05:38:41;11.90;99.90
32612;DHT22;19030;49.478;8.986;2023-04-29T05:40:44;12.00;99.90
32612;DHT22;19030;49.478;8.986;2023-04-29T05:43:05;12.00;99.90
32612;DHT22;19030;49.478;8.986;2023-04-29T05:45:06;12.00;99.90
32612;DHT22;19030;49.478;8.986;2023-04-29T05:47:07;12.10;99.90
32612;DHT22;19030;49.478;8.986;2023-04-29T05:49:08;12.10;99.90
32612;DHT22;19030;49.478;8.986;2023-04-29T05:51:08;12.20;99.90
32612;DHT22;19030;49.478;8.986;2023-04-29T05:53:09;12.20;99.90
32612;DHT22;19030;49.478;8.986;2023-04-29T05:55:11;12.20;99.90
32612;DHT22;19030;49.478;8.986;2023-04-29T05:57:12;12.30;99.90
32612;DHT22;19030;49.478;8.986;2023-04-29T05:59:14;12.40;99.90
32612;DHT22;19030;49.478;8.986;2023-04-29T06:01:23;12.50;99.90
32612;DHT22;19030;49.478;8.986;2023-04-29T06:03:24;12.60;99.90
32612;DHT22;19030;49.478;8.986;2023-04-29T06:05:42;12.60;99.90
32612;DHT22;19030;49.478;8.986;2023-04-29T06:08:07;12.70;99.90
32612;DHT22;19030;49.478;8.986;2023-04-29T06:10:18;12.70;99.90
32612;DHT22;19030;49.478;8.986;2023-04-29T06:12:19;12.70;99.90
32612;DHT22;19030;49.478;8.986;2023-04-29T06:14:21;12.80;99.90
32612;DHT22;19030;49.478;8.986;2023-04-29T06:16:22;12.80;99.90
32612;DHT22;19030;49.478;8.986;2023-04-29T06:18:23;12.90;99.90
32612;DHT22;19030;49.478;8.986;2023-04-29T06:20:23;13.00;99.90
32612;DHT22;19030;49.478;8.986;2023-04-29T06:22:24;13.10;99.90
32612;DHT22;19030;49.478;8.986;2023-04-29T06:24:27;13.20;99.90
32612;DHT22;19030;49.478;8.986;2023-04-29T06:26:28;13.20;99.90
32612;DHT22;19030;49.478;8.986;2023-04-29T06:28:28;13.30;99.90
32612;DHT22;19030;49.478;8.986;2023-04-29T06:30:30;13.40;99.90
32612;DHT22;19030;49.478;8.986;2023-04-29T06:32:30;13.50;99.90
32612;DHT22;19030;49.478;8.986;2023-04-29T06:34:31;13.50;99.90
32612;DHT22;19030;49.478;8.986;2023-04-29T06:37:04;13.60;99.90
32612;DHT22;19030;49.478;8.986;2023-04-29T06:39:34;13.80;99.90
32612;DHT22;19030;49.478;8.986;2023-04-29T06:41:58;13.80;99.90
32612;DHT22;19030;49.478;8.986;2023-04-29T06:44:28;13.90;99.90
32612;DHT22;19030;49.478;8.986;2023-04-29T06:46:58;13.90;99.90
32612;DHT22;19030;49.478;8.986;2023-04-29T06:49:05;13.90;99.90
32612;DHT22;19030;49.478;8.986;2023-04-29T06:51:06;14.00;99.90
32612;DHT22;19030;49.478;8.986;2023-04-29T06:53:11;14.00;99.90
32612;DHT22;19030;49.478;8.986;2023-04-29T06:55:11;14.10;99.90
32612;DHT22;19030;49.478;8.986;2023-04-29T06:57:15;14.20;99.90
32612;DHT22;19030;49.478;8.986;2023-04-29T06:59:19;14.40;99.90
32612;DHT22;19030;49.478;8.986;2023-04-29T07:01:21;14.60;99.90
32612;DHT22;19030;49.478;8.986;2023-04-29T07:03:21;14.70;99.90
32612;DHT22;19030;49.478;8.986;2023-04-29T07:05:22;14.80;99.90
32612;DHT22;19030;49.478;8.986;2023-04-29T07:07:23;14.80;99.90
32612;DHT22;19030;49.478;8.986;2023-04-29T07:09:24;14.60;99.90
32612;DHT22;19030;49.478;8.986;2023-04-29T07:11:26;14.70;99.90
32612;DHT22;19030;49.478;8.986;2023-04-29T07:13:27;14.90;99.90
32612;DHT22;19030;49.478;8.986;2023-04-29T07:15:28;15.10;99.90
32612;DHT22;19030;49.478;8.986;2023-04-29T07:17:29;15.10;99.90
32612;DHT22;19030;49.478;8.986;2023-04-29T07:19:31;15.20;99.90
32612;DHT22;19030;49.478;8.986;2023-04-29T07:21:31;15.40;99.90
32612;DHT22;19030;49.478;8.986;2023-04-29T07:23:32;15.70;99.90
32612;DHT22;19030;49.478;8.986;2023-04-29T07:25:32;15.90;99.90
32612;DHT22;19030;49.478;8.986;2023-04-29T07:27:33;16.00;99.90
32612;DHT22;19030;49.478;8.986;2023-04-29T07:29:34;16.10;99.90
32612;DHT22;19030;49.478;8.986;2023-04-29T07:31:35;16.30;99.90
32612;DHT22;19030;49.478;8.986;2023-04-29T07:33:37;16.40;99.90
32612;DHT22;19030;49.478;8.986;2023-04-29T07:35:38;16.50;99.90
32612;DHT22;19030;49.478;8.986;2023-04-29T07:37:41;16.60;99.90
32612;DHT22;19030;49.478;8.986;2023-04-29T07:39:44;16.60;99.90
32612;DHT22;19030;49.478;8.986;2023-04-29T07:41:46;16.60;99.90
32612;DHT22;19030;49.478;8.986;2023-04-29T07:43:46;16.50;99.90
32612;DHT22;19030;49.478;8.986;2023-04-29T07:45:48;16.40;99.90
32612;DHT22;19030;49.478;8.986;2023-04-29T07:47:49;16.50;99.90
32612;DHT22;19030;49.478;8.986;2023-04-29T07:49:49;16.40;99.90
32612;DHT22;19030;49.478;8.986;2023-04-29T07:51:50;16.40;99.90
32612;DHT22;19030;49.478;8.986;2023-04-29T07:53:51;16.40;99.90
32612;DHT22;19030;49.478;8.986;2023-04-29T07:55:51;16.40;99.90
32612;DHT22;19030;49.478;8.986;2023-04-29T07:57:55;16.40;99.90
32612;DHT22;19030;49.478;8.986;2023-04-29T07:59:56;16.40;99.90
32612;DHT22;19030;49.478;8.986;2023-04-29T08:01:56;16.20;99.90
32612;DHT22;19030;49.478;8.986;2023-04-29T08:03:57;16.00;99.90
32612;DHT22;19030;49.478;8.986;2023-04-29T08:06:01;16.00;99.90
32612;DHT22;19030;49.478;8.986;2023-04-29T08:08:02;16.00;99.90
32612;DHT22;19030;49.478;8.986;2023-04-29T08:10:03;16.00;99.90
32612;DHT22;19030;49.478;8.986;2023-04-29T08:12:04;16.20;99.90
32612;DHT22;19030;49.478;8.986;2023-04-29T08:14:05;16.40;99.90
32612;DHT22;19030;49.478;8.986;2023-04-29T08:16:05;16.70;99.90
32612;DHT22;19030;49.478;8.986;2023-04-29T08:18:06;17.00;99.90
32612;DHT22;19030;49.478;8.986;2023-04-29T08:20:07;17.20;99.90
32612;DHT22;19030;49.478;8.986;2023-04-29T08:22:08;17.50;99.90
32612;DHT22;19030;49.478;8.986;2023-04-29T08:24:10;17.90;99.90
32612;DHT22;19030;49.478;8.986;2023-04-29T08:26:11;18.50;99.90
32612;DHT22;19030;49.478;8.986;2023-04-29T08:28:14;19.30;99.90
32612;DHT22;19030;49.478;8.986;2023-04-29T08:30:15;19.90;99.90
32612;DHT22;19030;49.478;8.986;2023-04-29T08:32:16;20.10;99.90
32612;DHT22;19030;49.478;8.986;2023-04-29T08:34:16;20.00;99.90
32612;DHT22;19030;49.478;8.986;2023-04-29T08:36:17;19.70;99.90
32612;DHT22;19030;49.478;8.986;2023-04-29T08:38:17;19.30;99.90
32612;DHT22;19030;49.478;8.986;2023-04-29T08:40:18;18.90;99.90
32612;DHT22;19030;49.478;8.986;2023-04-29T08:42:36;18.60;99.90
32612;DHT22;19030;49.478;8.986;2023-04-29T08:44:39;18.50;99.90
32612;DHT22;19030;49.478;8.986;2023-04-29T08:46:40;18.40;99.90
32612;DHT22;19030;49.478;8.986;2023-04-29T08:48:41;18.20;99.90
32612;DHT22;19030;49.478;8.986;2023-04-29T08:50:42;18.30;99.90
32612;DHT22;19030;49.478;8.986;2023-04-29T08:52:43;18.30;99.90
32612;DHT22;19030;49.478;8.986;2023-04-29T08:54:44;18.30;99.90
32612;DHT22;19030;49.478;8.986;2023-04-29T08:56:45;18.10;99.90
32612;DHT22;19030;49.478;8.986;2023-04-29T08:58:52;18.00;99.90
32612;DHT22;19030;49.478;8.986;2023-04-29T09:00:53;17.90;99.90
32612;DHT22;19030;49.478;8.986;2023-04-29T09:02:56;18.30;99.90
32612;DHT22;19030;49.478;8.986;2023-04-29T09:05:04;18.20;99.90
32612;DHT22;19030;49.478;8.986;2023-04-29T09:07:09;18.20;99.90
32612;DHT22;19030;49.478;8.986;2023-04-29T09:09:10;18.10;99.90
32612;DHT22;19030;49.478;8.986;2023-04-29T09:11:11;17.80;99.90
32612;DHT22;19030;49.478;8.986;2023-04-29T09:13:31;17.20;99.90
32612;DHT22;19030;49.478;8.986;2023-04-29T09:15:38;16.70;99.90
32612;DHT22;19030;49.478;8.986;2023-04-29T09:17:43;16.20;99.90
32612;DHT22;19030;49.478;8.986;2023-04-29T09:19:45;15.80;99.90
32612;DHT22;19030;49.478;8.986;2023-04-29T09:21:53;15.50;99.90
32612;DHT22;19030;49.478;8.986;2023-04-29T09:23:56;15.50;99.90
32612;DHT22;19030;49.478;8.986;2023-04-29T09:25:57;15.40;99.90
32612;DHT22;19030;49.478;8.986;2023-04-29T09:27:58;15.30;99.90
32612;DHT22;19030;49.478;8.986;2023-04-29T09:30:02;15.20;99.90
32612;DHT22;19030;49.478;8.986;2023-04-29T09:32:18;15.20;99.90
32612;DHT22;19030;49.478;8.986;2023-04-29T09:34:35;15.30;99.90
32612;DHT22;19030;49.478;8.986;2023-04-29T09:36:51;15.30;99.90
32612;DHT22;19030;49.478;8.986;2023-04-29T09:38:58;15.40;99.90
32612;DHT22;19030;49.478;8.986;2023-04-29T09:40:58;15.50;99.90
32612;DHT22;19030;49.478;8.986;2023-04-29T09:43:00;15.70;99.90
32612;DHT22;19030;49.478;8.986;2023-04-29T09:45:00;16.00;99.90
32612;DHT22;19030;49.478;8.986;2023-04-29T09:47:06;16.20;99.90
32612;DHT22;19030;49.478;8.986;2023-04-29T09:49:28;16.30;99.90
32612;DHT22;19030;49.478;8.986;2023-04-29T09:51:28;16.50;99.90
32612;DHT22;19030;49.478;8.986;2023-04-29T09:53:31;16.50;99.90
32612;DHT22;19030;49.478;8.986;2023-04-29T09:55:32;16.40;99.90
32612;DHT22;19030;49.478;8.986;2023-04-29T09:57:39;16.50;99.90
32612;DHT22;19030;49.478;8.986;2023-04-29T09:59:41;16.60;99.90
32612;DHT22;19030;49.478;8.986;2023-04-29T10:01:42;16.60;99.90
32612;DHT22;19030;49.478;8.986;2023-04-29T10:03:43;16.70;99.90
32612;DHT22;19030;49.478;8.986;2023-04-29T10:05:44;16.80;99.90
32612;DHT22;19030;49.478;8.986;2023-04-29T10:07:47;16.90;99.90
32612;DHT22;19030;49.478;8.986;2023-04-29T10:09:49;16.90;99.90
32612;DHT22;19030;49.478;8.986;2023-04-29T10:11:52;16.60;99.90
32612;DHT22;19030;49.478;8.986;2023-04-29T10:13:53;16.50;99.90
32612;DHT22;19030;49.478;8.986;2023-04-29T10:16:27;16.60;99.90
32612;DHT22;19030;49.478;8.986;2023-04-29T10:18:34;16.50;99.90
32612;DHT22;19030;49.478;8.986;2023-04-29T10:20:37;16.50;99.90
32612;DHT22;19030;49.478;8.986;2023-04-29T10:22:49;16.80;99.90
32612;DHT22;19030;49.478;8.986;2023-04-29T10:24:50;17.20;99.90
32612;DHT22;19030;49.478;8.986;2023-04-29T10:26:53;17.70;99.90
32612;DHT22;19030;49.478;8.986;2023-04-29T10:28:56;17.90;99.90
32612;DHT22;19030;49.478;8.986;2023-04-29T10:31:00;17.80;99.90
32612;DHT22;19030;49.478;8.986;2023-04-29T10:33:02;17.70;99.90
32612;DHT22;19030;49.478;8.986;2023-04-29T10:35:05;17.80;99.90
32612;DHT22;19030;49.478;8.986;2023-04-29T10:37:08;18.10;99.90
32612;DHT22;19030;49.478;8.986;2023-04-29T10:39:18;18.10;99.90
32612;DHT22;19030;49.478;8.986;2023-04-29T10:41:22;18.30;99.90
32612;DHT22;19030;49.478;8.986;2023-04-29T10:43:25;18.40;99.90
32612;DHT22;19030;49.478;8.986;2023-04-29T10:45:30;18.40;99.90
32612;DHT22;19030;49.478;8.986;2023-04-29T10:47:32;18.40;99.90
32612;DHT22;19030;49.478;8.986;2023-04-29T10:49:35;18.50;99.90
32612;DHT22;19030;49.478;8.986;2023-04-29T10:51:41;18.50;99.90
32612;DHT22;19030;49.478;8.986;2023-04-29T10:56:09;18.30;99.90
32612;DHT22;19030;49.478;8.986;2023-04-29T10:58:40;18.20;99.90
32612;DHT22;19030;49.478;8.986;2023-04-29T11:00:41;18.30;99.90
32612;DHT22;19030;49.478;8.986;2023-04-29T11:02:42;18.60;99.90
32612;DHT22;19030;49.478;8.986;2023-04-29T11:07:08;19.20;99.90
32612;DHT22;19030;49.478;8.986;2023-04-29T11:09:19;19.10;99.90
32612;DHT22;19030;49.478;8.986;2023-04-29T11:11:20;18.90;98.70
32612;DHT22;19030;49.478;8.986;2023-04-29T11:13:27;18.90;97.70
32612;DHT22;19030;49.478;8.986;2023-04-29T11:15:31;18.80;98.00
32612;DHT22;19030;49.478;8.986;2023-04-29T11:17:35;18.50;96.90
32612;DHT22;19030;49.478;8.986;2023-04-29T11:19:41;18.20;98.20
32612;DHT22;19030;49.478;8.986;2023-04-29T11:21:45;18.10;98.70
32612;DHT22;19030;49.478;8.986;2023-04-29T11:23:46;18.10;98.60
32612;DHT22;19030;49.478;8.986;2023-04-29T11:25:47;18.10;98.80
32612;DHT22;19030;49.478;8.986;2023-04-29T11:27:48;18.10;98.10
32612;DHT22;19030;49.478;8.986;2023-04-29T11:29:52;18.30;98.70
32612;DHT22;19030;49.478;8.986;2023-04-29T11:31:58;18.50;98.00
32612;DHT22;19030;49.478;8.986;2023-04-29T11:33:59;18.60;97.00
32612;DHT22;19030;49.478;8.986;2023-04-29T11:36:00;18.80;96.70
32612;DHT22;19030;49.478;8.986;2023-04-29T11:38:00;18.90;97.20
32612;DHT22;19030;49.478;8.986;2023-04-29T11:40:01;18.90;97.30
32612;DHT22;19030;49.478;8.986;2023-04-29T11:42:06;19.00;96.50
32612;DHT22;19030;49.478;8.986;2023-04-29T11:44:06;19.00;97.10
32612;DHT22;19030;49.478;8.986;2023-04-29T11:46:14;18.90;96.60
32612;DHT22;19030;49.478;8.986;2023-04-29T11:48:19;18.90;96.50
32612;DHT22;19030;49.478;8.986;2023-04-29T11:50:20;18.60;97.30
32612;DHT22;19030;49.478;8.986;2023-04-29T11:52:21;18.70;97.00
32612;DHT22;19030;49.478;8.986;2023-04-29T11:54:28;18.60;96.80
32612;DHT22;19030;49.478;8.986;2023-04-29T11:56:28;18.70;97.10
32612;DHT22;19030;49.478;8.986;2023-04-29T11:58:29;18.80;95.40
32612;DHT22;19030;49.478;8.986;2023-04-29T12:00:30;19.20;96.70
32612;DHT22;19030;49.478;8.986;2023-04-29T12:02:31;19.50;95.10
32612;DHT22;19030;49.478;8.986;2023-04-29T12:04:32;19.50;93.80
32612;DHT22;19030;49.478;8.986;2023-04-29T12:06:33;19.50;92.90
32612;DHT22;19030;49.478;8.986;2023-04-29T12:08:33;19.30;92.30
32612;DHT22;19030;49.478;8.986;2023-04-29T12:10:37;19.30;94.30
32612;DHT22;19030;49.478;8.986;2023-04-29T12:12:38;19.20;93.20
32612;DHT22;19030;49.478;8.986;2023-04-29T12:14:41;19.00;94.40
32612;DHT22;19030;49.478;8.986;2023-04-29T12:16:42;19.00;94.50
32612;DHT22;19030;49.478;8.986;2023-04-29T12:18:42;18.90;94.80
32612;DHT22;19030;49.478;8.986;2023-04-29T12:20:44;18.80;96.20
32612;DHT22;19030;49.478;8.986;2023-04-29T12:22:45;18.80;94.60
32612;DHT22;19030;49.478;8.986;2023-04-29T12:24:46;18.90;95.90
32612;DHT22;19030;49.478;8.986;2023-04-29T12:26:48;18.90;93.70
32612;DHT22;19030;49.478;8.986;2023-04-29T12:28:53;18.50;94.30
32612;DHT22;19030;49.478;8.986;2023-04-29T12:30:54;18.30;95.90
32612;DHT22;19030;49.478;8.986;2023-04-29T12:32:55;18.10;95.30
32612;DHT22;19030;49.478;8.986;2023-04-29T12:34:56;17.90;96.20
32612;DHT22;19030;49.478;8.986;2023-04-29T12:37:00;17.70;96.40
32612;DHT22;19030;49.478;8.986;2023-04-29T12:39:01;17.40;97.80
32612;DHT22;19030;49.478;8.986;2023-04-29T12:41:01;17.20;98.30
32612;DHT22;19030;49.478;8.986;2023-04-29T12:43:06;17.00;99.40
32612;DHT22;19030;49.478;8.986;2023-04-29T12:45:08;16.90;99.50
32612;DHT22;19030;49.478;8.986;2023-04-29T12:47:09;16.90;98.90
32612;DHT22;19030;49.478;8.986;2023-04-29T12:49:10;16.90;99.90
32612;DHT22;19030;49.478;8.986;2023-04-29T12:51:11;16.70;99.90
32612;DHT22;19030;49.478;8.986;2023-04-29T12:53:12;16.50;99.90
32612;DHT22;19030;49.478;8.986;2023-04-29T12:55:12;16.40;99.90
32612;DHT22;19030;49.478;8.986;2023-04-29T12:57:13;16.30;99.90
32612;DHT22;19030;49.478;8.986;2023-04-29T12:59:13;16.20;99.90
32612;DHT22;19030;49.478;8.986;2023-04-29T13:01:14;16.00;99.90
32612;DHT22;19030;49.478;8.986;2023-04-29T13:03:15;15.90;99.90
32612;DHT22;19030;49.478;8.986;2023-04-29T13:05:16;16.00;99.90
32612;DHT22;19030;49.478;8.986;2023-04-29T13:07:17;16.10;99.90